Latest Weather Observations for Delamere

IDD60801

Issued at 11:51 pm CST Sunday 17 February 2019 (issued every 10 minutes, with the page automatically refreshed every 10 minutes)

About weather observations | Map of weather stations | Latest weather observations for NT | Other Formats
Station Details ID: 014949 Name: DELAMERE WEAPONS RANGE Lat: -15.74 Lon: 131.92 Height: 221.0 m
Data from the previous 72 hours. | See also: Recent months at Delamere
Date/Time
CST
Temp
°C
App
Temp
°C
Dew
Point
°C
Rel
Hum
%
Delta-T
°C
Wind Press
QNH
hPa
Press
MSL
hPa
Rain since
9am
mm
Dir  Spd
km/h
Gust
km/h
Spd
kts
Gust
kts
17/11:30pm 28.1 29.7 21.4 67 4.5 NW 15 20 8 11 1010.4 - 0.2
17/11:00pm 28.1 30.3 21.9 69 4.2 WNW 13 19 7 10 1010.0 - 0.2
17/10:30pm 28.4 31.1 21.4 66 4.7 NW 9 15 5 8 1010.1 - 0.2
17/10:00pm 28.7 31.2 21.0 63 5.2 WNW 9 15 5 8 1009.8 - 0.2
17/09:30pm 28.7 32.9 21.0 63 5.2 CALM 0 0 0 0 1009.9 - 0.2
17/09:00pm 29.0 32.3 20.7 61 5.5 WSW 4 9 2 5 1009.5 1007.9 0.2
17/08:30pm 29.5 31.4 20.6 58 5.9 NNW 11 15 6 8 1008.9 - 0.2
17/08:00pm 30.0 33.1 20.3 56 6.5 NW 4 7 2 4 1008.9 - 0.2
17/07:30pm 30.3 33.5 20.5 55 6.5 NNW 4 11 2 6 1008.7 - 0.2
17/07:00pm 30.5 32.9 20.1 53 6.9 NNW 7 11 4 6 1008.2 - 0.2
17/06:30pm 30.7 32.7 20.0 52 7.1 NW 9 13 5 7 1007.9 - 0.2
17/06:00pm 30.8 31.8 19.5 51 7.5 WNW 13 20 7 11 1007.6 1005.9 0.2
17/05:30pm 33.1 33.6 19.2 43 9.2 WNW 15 20 8 11 1007.0 - 0.2
17/05:00pm 34.1 34.3 19.4 42 9.8 NW 17 24 9 13 1006.8 - 0.2
17/04:30pm 35.3 35.8 20.0 40 10.3 NW 17 24 9 13 1006.7 - 0.2
17/04:00pm 34.8 35.5 19.6 40 10.2 WNW 15 26 8 14 1007.1 - 0.2
17/03:30pm 36.3 37.0 18.8 35 11.6 N 13 17 7 9 1007.2 - 0.2
17/03:00pm 36.0 36.2 18.6 36 11.5 NNE 15 24 8 13 1007.9 1006.2 0.2
17/02:30pm 36.4 37.4 19.4 37 11.4 NE 13 20 7 11 1008.6 - 0.2
17/02:00pm 35.5 37.2 18.6 37 11.2 NNE 7 15 4 8 1009.2 - 0.2
17/01:30pm 35.4 36.1 18.9 37 10.9 NNE 13 20 7 11 1010.0 - 0.2
17/01:00pm 34.2 34.8 17.8 37 10.7 N 11 22 6 12 1010.6 - 0.2
17/12:30pm 33.7 33.9 19.4 43 9.5 N 17 24 9 13 1011.1 - 0.2
17/12:00pm 33.7 35.9 20.5 46 8.9 N 9 17 5 9 1011.6 1009.9 0.2
17/11:30am 32.5 35.2 19.4 46 8.7 W 4 9 2 5 1011.9 - 0.2
17/11:00am 32.3 34.5 19.5 46 8.5 NNE 7 13 4 7 1012.2 - 0.2
17/10:30am 31.7 34.1 20.0 50 7.8 NW 7 13 4 7 1012.4 - 0.2
17/10:00am 30.7 32.0 19.4 51 7.4 W 11 17 6 9 1012.4 - 0.2
17/09:30am 29.8 32.1 19.8 55 6.6 W 7 11 4 6 1012.5 - 0.0
17/09:00am 28.3 30.4 20.1 61 5.4 WSW 9 15 5 8 1012.3 1010.7 0.4
17/08:30am 26.7 28.5 20.3 68 4.2 W 11 17 6 9 1011.8 - 0.4
17/08:00am 25.6 28.5 21.1 76 3.0 W 7 9 4 5 1011.4 - 0.4
17/07:30am 24.8 27.8 21.3 81 2.3 W 7 13 4 7 1010.8 - 0.4
17/07:00am 24.6 27.3 21.3 82 2.2 WNW 9 11 5 6 1010.7 - 0.4
17/06:30am 24.5 27.1 21.2 82 2.2 WNW 9 15 5 8 1010.6 - 0.4
17/06:00am 24.7 29.2 21.6 83 2.1 CALM 0 0 0 0 1010.4 1008.7 0.4
17/05:30am 24.7 29.2 21.6 83 2.1 CALM 0 0 0 0 1010.4 - 0.4
17/05:00am 24.5 28.2 21.4 83 2.1 N 4 6 2 3 1010.3 - 0.4
17/04:30am 24.5 27.9 22.0 86 1.7 N 7 11 4 6 1009.9 - 0.4
17/04:00am 24.8 27.9 21.1 80 2.5 W 6 7 3 4 1009.8 - 0.4
17/03:30am 25.1 29.4 21.2 79 2.6 CALM 0 9 0 5 1009.9 - 0.4
17/03:00am 25.2 28.4 21.3 79 2.6 NW 6 11 3 6 1009.8 1008.1 0.4
17/02:30am 25.4 28.7 21.5 79 2.6 NNW 6 11 3 6 1009.9 - 0.4
17/02:00am 25.8 30.2 22.1 80 2.5 N 2 7 1 4 1009.9 - 0.4
17/01:30am 25.8 29.0 22.3 81 2.4 NNW 9 11 5 6 1010.5 - 0.4
17/01:00am 26.2 30.6 22.1 78 2.8 WSW 2 11 1 6 1010.5 - 0.4
17/12:30am 25.9 30.1 22.4 81 2.4 WSW 4 11 2 6 1010.7 - 0.4
17/12:00am 25.8 29.5 22.5 82 2.2 WNW 7 11 4 6 1011.0 1009.3 0.4
 
Date/Time
CST
Temp
°C
App
Temp
°C
Dew
Point
°C
Rel
Hum
%
Delta-T
°C
Wind Press
QNH
hPa
Press
MSL
hPa
Rain since
9am
mm
Dir  Spd
km/h
Gust
km/h
Spd
kts
Gust
kts
16/11:30pm 25.7 28.7 22.6 83 2.1 WNW 11 13 6 7 1011.4 - 0.4
16/11:00pm 26.1 29.6 22.2 79 2.6 NNW 7 11 4 6 1011.6 - 0.4
16/10:30pm 26.2 29.3 22.1 78 2.8 N 9 15 5 8 1011.5 - 0.4
16/10:00pm 26.4 28.9 21.8 76 3.1 NW 11 17 6 9 1011.2 - 0.4
16/09:30pm 26.4 29.0 22.7 80 2.5 NNW 13 20 7 11 1011.0 - 0.4
16/09:00pm 26.2 28.8 22.7 81 2.4 NW 13 19 7 10 1010.8 1009.1 0.4
16/08:30pm 26.7 28.1 21.9 75 3.2 NNW 17 24 9 13 1011.4 - 0.4
16/08:00pm 26.9 29.3 21.6 72 3.6 NNW 11 15 6 8 1011.0 - 0.4
16/07:30pm 26.8 29.2 21.5 72 3.6 NNW 11 17 6 9 1011.0 - 0.4
16/07:00pm 26.7 27.9 21.5 73 3.5 E 17 26 9 14 1010.5 - 0.4
16/06:30pm 26.8 28.3 21.3 72 3.7 NE 15 22 8 12 1009.1 - 0.4
16/06:06pm 26.2 23.7 19.8 68 4.2 E 32 50 17 27 1009.9 - 0.4
16/06:00pm 31.1 32.8 19.4 49 7.7 E 9 17 5 9 1009.5 1007.9 0.0
16/05:30pm 33.3 34.6 20.8 48 8.5 SW 15 26 8 14 1008.1 - 0.0
16/05:00pm 32.6 31.1 20.2 48 8.3 WSW 28 37 15 20 1007.4 - 0.0
16/04:30pm 37.5 39.6 19.4 34 12.1 SW 7 13 4 7 1007.6 - 0.0
16/04:00pm 37.1 38.5 18.6 33 12.3 W 9 17 5 9 1007.7 - 0.0
16/03:30pm 36.7 38.5 18.3 34 12.1 S 6 11 3 6 1008.2 - 0.0
16/03:00pm 36.8 38.7 19.7 36 11.5 S 9 13 5 7 1008.3 1006.7 0.0
16/02:30pm 36.4 38.7 20.6 39 10.7 ESE 9 13 5 7 1008.9 - 0.0
16/02:00pm 36.7 39.0 21.3 40 10.6 SW 11 19 6 10 1009.8 - 0.0
16/01:30pm 35.1 37.2 20.2 41 10.0 NW 9 15 5 8 1010.5 - 0.0
16/01:00pm 34.2 36.6 20.9 45 9.0 W 9 15 5 8 1011.2 - 0.0
16/12:30pm 34.5 37.3 21.5 46 8.9 WSW 9 17 5 9 1011.7 - 0.0
16/12:00pm 33.9 36.8 21.0 47 8.8 SSW 7 13 4 7 1012.2 1010.5 0.0
16/11:30am 32.9 35.1 20.4 47 8.4 NW 9 13 5 7 1012.7 - 0.0
16/11:00am 32.8 35.6 21.6 51 7.6 NW 9 15 5 8 1013.1 - 0.0
16/10:30am 31.9 35.0 21.4 53 7.1 NNW 7 13 4 7 1013.5 - 0.0
16/10:00am 31.5 34.5 21.9 56 6.6 NE 9 15 5 8 1013.8 - 0.0
16/09:30am 30.6 33.1 21.7 59 6.0 N 11 17 6 9 1013.9 - 0.0
16/09:00am 29.7 32.7 21.9 63 5.3 N 9 15 5 8 1013.7 1012.1 0.6
16/08:30am 28.4 31.3 21.7 67 4.5 N 9 13 5 7 1013.3 - 0.6
16/08:00am 27.3 29.5 21.8 72 3.7 N 13 19 7 10 1012.8 - 0.6
16/07:30am 26.2 29.4 22.3 79 2.6 N 9 11 5 6 1012.5 - 0.6
16/07:00am 25.1 28.8 22.6 86 1.7 NE 7 9 4 5 1012.4 - 0.6
16/06:30am 25.4 29.2 22.7 85 1.8 NNE 7 9 4 5 1012.2 - 0.6
16/06:00am 25.2 28.6 22.7 86 1.7 NE 9 13 5 7 1012.3 1010.7 0.6
16/05:30am 25.2 29.1 22.5 85 1.8 ENE 6 11 3 6 1012.2 - 0.6
16/05:00am 25.5 28.6 22.2 82 2.2 ENE 9 13 5 7 1011.8 - 0.6
16/04:30am 25.5 29.0 22.2 82 2.2 NNW 7 9 4 5 1010.8 - 0.6
16/04:00am 24.9 28.6 22.6 87 1.6 NNW 7 9 4 5 1010.8 - 0.6
16/03:30am 24.6 28.7 23.0 91 1.1 NNE 6 9 3 5 1010.9 - 0.6
16/03:00am 24.9 30.2 23.0 89 1.3 CALM 0 6 0 3 1011.2 1009.5 0.6
16/02:30am 25.3 29.4 23.0 87 1.6 N 6 9 3 5 1011.2 - 0.6
16/02:00am 25.4 30.6 22.9 86 1.7 CALM 0 0 0 0 1011.6 - 0.6
16/01:30am 25.7 30.9 22.8 84 2.0 CALM 0 9 0 5 1012.0 - 0.6
16/01:00am 25.9 30.0 23.2 85 1.9 N 7 11 4 6 1012.3 - 0.6
16/12:30am 25.9 29.3 23.4 86 1.7 N 11 15 6 8 1012.7 - 0.6
16/12:00am 25.7 29.7 23.7 89 1.4 NNE 9 19 5 10 1012.8 1011.2 0.6
 
Date/Time
CST
Temp
°C
App
Temp
°C
Dew
Point
°C
Rel
Hum
%
Delta-T
°C
Wind Press
QNH
hPa
Press
MSL
hPa
Rain since
9am
mm
Dir  Spd
km/h
Gust
km/h
Spd
kts
Gust
kts
15/11:30pm 25.5 30.4 23.7 90 1.2 NE 4 15 2 8 1012.7 - 0.6
15/11:00pm 26.1 31.8 23.8 87 1.6 CALM 0 0 0 0 1012.4 - 0.6
15/10:30pm 26.5 32.1 23.6 84 2.0 CALM 0 0 0 0 1012.4 - 0.6
15/10:00pm 26.4 31.1 23.3 83 2.1 N 4 7 2 4 1012.3 - 0.4
15/09:30pm 25.8 31.5 23.7 88 1.4 CALM 0 0 0 0 1012.1 - 0.4
15/09:00pm 26.0 31.3 23.1 84 2.0 CALM 0 6 0 3 1011.7 1010.0 0.4
15/08:30pm 25.9 31.1 22.8 83 2.1 CALM 0 0 0 0 1011.4 - 0.4
15/08:00pm 26.2 30.9 22.7 81 2.4 SSW 2 11 1 6 1011.3 - 0.4
15/07:30pm 26.7 30.3 22.3 77 3.0 NNW 7 9 4 5 1011.3 - 0.4
15/07:00pm 26.0 29.0 22.7 82 2.2 NE 11 15 6 8 1011.6 - 0.4
15/06:30pm 26.2 27.8 22.1 78 2.8 E 17 24 9 13 1011.8 - 0.4
15/06:00pm 26.9 28.8 21.4 72 3.7 E 13 20 7 11 1011.5 1009.8 0.4
15/05:30pm 28.0 30.4 20.8 65 4.8 SE 9 11 5 6 1011.4 - 0.4
15/05:00pm 27.9 30.8 21.0 66 4.6 W 7 13 4 7 1011.1 - 0.4
15/04:30pm 28.9 29.4 20.1 59 5.8 SSW 17 24 9 13 1010.6 - 0.4
15/04:00pm 30.3 30.5 19.3 51 7.2 SSE 17 22 9 12 1010.6 - 0.4
15/03:30pm 31.6 32.4 19.9 50 7.8 S 15 28 8 15 1009.9 - 0.4
15/03:00pm 32.4 32.7 21.6 53 7.4 S 22 32 12 17 1009.3 1007.7 0.4
15/02:30pm 30.5 33.7 23.7 67 4.7 SSW 13 19 7 10 1010.0 - 0.4
15/02:00pm 32.4 33.5 21.3 52 7.5 S 17 24 9 13 1010.2 - 0.0
15/01:30pm 35.7 37.3 19.2 38 11.0 W 9 13 5 7 1010.7 - 0.0
15/01:00pm 36.3 38.4 20.1 38 10.9 NW 9 15 5 8 1011.2 - 0.0
15/11:00am 33.8 37.5 22.6 52 7.8 NW 7 15 4 8 1013.0 - 0.0
15/04:00am 29.2 31.6 22.9 69 4.3 N 15 20 8 11 1009.8 - 0.0
15/03:30am 29.5 31.8 22.7 67 4.7 N 15 22 8 12 1009.5 - 0.0
15/03:00am 29.6 32.7 22.8 67 4.7 N 11 17 6 9 1009.3 1007.7 0.0
15/02:30am 29.7 32.6 23.2 68 4.5 N 13 19 7 10 1009.4 - 0.0
15/02:00am 29.6 32.6 23.3 69 4.4 N 13 20 7 11 1009.8 - 0.0
15/01:30am 29.8 32.6 23.0 67 4.7 NNE 13 19 7 10 1010.2 - 0.0
15/01:00am 30.1 32.8 22.8 65 5.0 NNE 13 19 7 10 1010.4 - 0.0
15/12:30am 29.9 32.1 21.8 62 5.5 NNE 13 17 7 9 1010.5 - 0.0
15/12:00am 30.3 33.0 21.4 59 6.0 NNE 9 13 5 7 1010.9 1009.2 0.0

Other Formats:

Comma delimited format used in spreadsheet applications
http://www.bom.gov.au/fwo/IDD60801/IDD60801.94225.axf

JavaScript Object Notation format (JSON) in row-major order
http://www.bom.gov.au/fwo/IDD60801/IDD60801.94225.json